createdAt,value
2018-04-15T00:00:42.018Z,95567.92
2018-04-15T00:03:08.425Z,95560.09
2018-04-15T00:05:34.882Z,95558.56
2018-04-15T00:08:01.284Z,95560.94
2018-04-15T00:10:27.693Z,95570.50
2018-04-15T00:12:54.186Z,95562.11
2018-04-15T00:15:20.610Z,95550.74
2018-04-15T00:17:47.061Z,95548.88
2018-04-15T00:20:13.483Z,95547.51
2018-04-15T00:22:40.676Z,95541.04
2018-04-15T00:25:07.086Z,95549.28
2018-04-15T00:27:33.541Z,95554.39
2018-04-15T00:29:59.954Z,95557.17
2018-04-15T00:32:26.358Z,95553.49
2018-04-15T00:34:53.544Z,95567.53
2018-04-15T00:37:19.948Z,95552.45
2018-04-15T00:39:46.386Z,95558.43
2018-04-15T00:42:12.802Z,95534.64
2018-04-15T00:44:39.260Z,95539.36
2018-04-15T00:47:05.730Z,95546.22
2018-04-15T00:49:32.111Z,95544.89
2018-04-15T00:51:58.531Z,95528.29
2018-04-15T00:54:24.948Z,95529.55
2018-04-15T00:56:51.354Z,95539.77
2018-04-15T00:59:17.784Z,95538.34
2018-04-15T01:01:44.286Z,95534.08
2018-04-15T01:04:10.747Z,95539.02
2018-04-15T01:06:37.151Z,95528.51
2018-04-15T01:09:03.558Z,95540.30
2018-04-15T01:11:30.007Z,95548.23
2018-04-15T01:13:56.439Z,95547.41
2018-04-15T01:16:22.885Z,95558.31
2018-04-15T01:18:49.425Z,95560.50
2018-04-15T01:21:15.843Z,95553.64
2018-04-15T01:23:42.338Z,95561.05
2018-04-15T01:26:08.785Z,95555.00
2018-04-15T01:28:35.226Z,95560.98
2018-04-15T01:31:01.652Z,95552.34
2018-04-15T01:33:28.046Z,95552.52
2018-04-15T01:35:54.524Z,95542.42
2018-04-15T01:38:20.989Z,95540.53
2018-04-15T01:40:47.383Z,95548.87
2018-04-15T01:43:13.775Z,95544.74
2018-04-15T01:45:40.176Z,95532.05
2018-04-15T01:48:06.660Z,95542.63
2018-04-15T01:50:33.117Z,95551.36
2018-04-15T01:52:59.554Z,95542.14
2018-04-15T01:55:25.979Z,95547.36
2018-04-15T01:57:52.398Z,95539.99
2018-04-15T02:00:18.876Z,95543.86
2018-04-15T02:02:45.276Z,95555.77
2018-04-15T02:05:11.715Z,95550.28
2018-04-15T02:07:38.123Z,95538.12
2018-04-15T02:10:04.673Z,95523.84
2018-04-15T02:12:31.095Z,95538.53
2018-04-15T02:14:57.495Z,95536.25
2018-04-15T02:17:23.899Z,95538.88
2018-04-15T02:19:50.321Z,95524.38
2018-04-15T02:22:16.771Z,95534.42
2018-04-15T02:24:43.180Z,95540.28
2018-04-15T02:27:09.631Z,95541.66
2018-04-15T02:29:36.045Z,95538.80
2018-04-15T02:32:02.475Z,95534.97
2018-04-15T02:34:28.915Z,95524.52
2018-04-15T02:36:55.335Z,95525.25
2018-04-15T02:39:21.796Z,95523.30
2018-04-15T02:41:48.193Z,95523.85
2018-04-15T02:44:14.633Z,95517.48
2018-04-15T02:46:41.023Z,95524.52
2018-04-15T02:49:07.454Z,95525.55
2018-04-15T02:51:33.859Z,95523.03
2018-04-15T02:54:00.277Z,95527.16
2018-04-15T02:56:26.698Z,95519.86
2018-04-15T02:58:53.167Z,95526.23
2018-04-15T03:01:19.598Z,95527.80
2018-04-15T03:03:46.009Z,95530.05
2018-04-15T03:06:12.430Z,95516.06
2018-04-15T03:08:38.876Z,95531.09
2018-04-15T03:11:05.283Z,95533.50
2018-04-15T03:13:31.699Z,95536.25
2018-04-15T03:15:58.151Z,95527.33
2018-04-15T03:18:24.589Z,95536.00
2018-04-15T03:20:50.993Z,95532.55
2018-04-15T03:23:17.350Z,95537.83
2018-04-15T03:25:43.721Z,95529.83
2018-04-15T03:28:10.059Z,95534.30
2018-04-15T03:30:36.400Z,95542.23
2018-04-15T03:33:02.727Z,95546.56
2018-04-15T03:35:29.099Z,95544.40
2018-04-15T03:37:55.432Z,95541.66
2018-04-15T03:40:21.794Z,95540.88
2018-04-15T03:42:48.131Z,95547.02
2018-04-15T03:45:14.502Z,95549.30
2018-04-15T03:47:40.856Z,95547.60
2018-04-15T03:50:07.222Z,95554.33
2018-04-15T03:52:33.580Z,95560.52
2018-04-15T03:54:59.953Z,95565.35
2018-04-15T03:57:26.314Z,95548.58
2018-04-15T03:59:52.682Z,95559.20
2018-04-15T04:02:19.064Z,95566.30
2018-04-15T04:04:45.408Z,95562.78
2018-04-15T04:07:11.724Z,95570.80
2018-04-15T04:09:38.055Z,95572.08
2018-04-15T04:12:04.378Z,95575.41
2018-04-15T04:14:30.732Z,95574.73
2018-04-15T04:16:57.056Z,95586.38
2018-04-15T04:19:23.447Z,95583.25
2018-04-15T04:21:49.768Z,95597.46
2018-04-15T04:24:16.144Z,95602.04
2018-04-15T04:26:42.486Z,95594.77
2018-04-15T04:29:08.877Z,95604.36
2018-04-15T04:31:35.209Z,95589.53
2018-04-15T04:34:01.565Z,95593.48
2018-04-15T04:36:27.896Z,95595.34
2018-04-15T04:38:54.216Z,95586.13
2018-04-15T04:41:20.559Z,95576.23
2018-04-15T04:43:46.903Z,95572.78
2018-04-15T04:46:13.222Z,95580.09
2018-04-15T04:48:39.563Z,95578.55
2018-04-15T04:51:05.889Z,95581.33
2018-04-15T04:53:32.247Z,95588.89
2018-04-15T04:55:58.588Z,95594.58
2018-04-15T04:58:24.935Z,95594.98
2018-04-15T05:00:51.268Z,95591.83
2018-04-15T05:03:17.637Z,95594.36
2018-04-15T05:05:43.971Z,95599.72
2018-04-15T05:08:10.293Z,95586.36
2018-04-15T05:10:36.655Z,95599.77
2018-04-15T05:13:03.008Z,95599.86
2018-04-15T05:15:29.418Z,95594.20
2018-04-15T05:17:55.739Z,95597.81
2018-04-15T05:20:22.095Z,95599.72
2018-04-15T05:22:48.421Z,95607.70
2018-04-15T05:25:14.753Z,95582.91
2018-04-15T05:27:41.112Z,95604.95
2018-04-15T05:30:07.488Z,95604.66
2018-04-15T05:32:33.791Z,95598.56
2018-04-15T05:35:00.112Z,95609.02
2018-04-15T05:37:26.476Z,95612.27
2018-04-15T05:39:52.807Z,95604.95
2018-04-15T05:42:19.196Z,95606.56
2018-04-15T05:44:45.559Z,95605.57
2018-04-15T05:47:11.943Z,95606.45
2018-04-15T05:49:38.273Z,95613.96
2018-04-15T05:52:04.610Z,95610.52
2018-04-15T05:54:30.931Z,95615.91
2018-04-15T05:56:57.247Z,95612.13
2018-04-15T05:59:23.679Z,95612.70
2018-04-15T06:01:50.012Z,95623.38
2018-04-15T06:04:16.328Z,95624.71
2018-04-15T06:06:42.640Z,95610.22
2018-04-15T06:09:09.044Z,95619.92
2018-04-15T06:11:35.368Z,95626.33
2018-04-15T06:14:01.701Z,95620.58
2018-04-15T06:16:28.059Z,95629.44
2018-04-15T06:18:54.375Z,95627.69
2018-04-15T06:21:20.701Z,95637.33
2018-04-15T06:23:47.017Z,95633.92
2018-04-15T06:26:13.352Z,95632.13
2018-04-15T06:28:39.710Z,95622.29
2018-04-15T06:31:06.145Z,95632.38
2018-04-15T06:33:32.475Z,95634.13
2018-04-15T06:35:58.801Z,95629.84
2018-04-15T06:38:25.115Z,95630.83
2018-04-15T06:40:51.437Z,95631.20
2018-04-15T06:43:17.755Z,95635.35
2018-04-15T06:45:44.067Z,95621.55
2018-04-15T06:48:10.452Z,95640.55
2018-04-15T06:50:36.808Z,95639.92
2018-04-15T06:53:03.131Z,95636.93
2018-04-15T06:55:29.488Z,95643.95
2018-04-15T06:57:55.849Z,95649.26
2018-04-15T07:00:22.174Z,95655.20
2018-04-15T07:02:48.492Z,95654.61
2018-04-15T07:05:14.874Z,95661.81
2018-04-15T07:07:41.195Z,95653.70
2018-04-15T07:10:07.549Z,95654.08
2018-04-15T07:12:33.976Z,95652.28
2018-04-15T07:15:00.352Z,95655.72
2018-04-15T07:17:26.719Z,95653.50
2018-04-15T07:19:53.040Z,95649.22
2018-04-15T07:22:19.411Z,95653.24
2018-04-15T07:24:45.763Z,95653.95
2018-04-15T07:27:12.095Z,95649.86
2018-04-15T07:29:38.410Z,95642.44
2018-04-15T07:32:04.735Z,95646.19
2018-04-15T07:34:31.138Z,95636.69
2018-04-15T07:36:57.468Z,95647.45
2018-04-15T07:39:23.796Z,95644.83
2018-04-15T07:41:50.113Z,95652.34
2018-04-15T07:44:16.437Z,95643.53
2018-04-15T07:46:42.751Z,95644.14
2018-04-15T07:49:09.063Z,95641.84
2018-04-15T07:51:35.374Z,95636.86
2018-04-15T07:54:01.700Z,95640.38
2018-04-15T07:56:28.016Z,95643.13
2018-04-15T07:58:54.328Z,95637.00
2018-04-15T08:01:20.656Z,95633.87
2018-04-15T08:03:47.012Z,95634.80
2018-04-15T08:06:13.328Z,95631.70
2018-04-15T08:08:39.706Z,95624.75
2018-04-15T08:11:06.024Z,95621.80
2018-04-15T08:13:32.348Z,95624.67
2018-04-15T08:15:58.663Z,95618.41
2018-04-15T08:18:25.072Z,95620.60
2018-04-15T08:20:51.382Z,95618.77
2018-04-15T08:23:17.708Z,95613.85
2018-04-15T08:25:44.064Z,95614.63
2018-04-15T08:28:10.368Z,95597.33
2018-04-15T08:30:36.716Z,95609.34
2018-04-15T08:33:03.027Z,95605.97
2018-04-15T08:35:29.350Z,95602.33
2018-04-15T08:37:55.677Z,95596.61
2018-04-15T08:40:22.024Z,95595.45
2018-04-15T08:42:48.342Z,95606.85
2018-04-15T08:45:15.412Z,95610.27
2018-04-15T08:47:41.759Z,95590.98
2018-04-15T08:50:08.091Z,95602.88
2018-04-15T08:52:34.412Z,95594.54
2018-04-15T08:55:00.740Z,95597.91
2018-04-15T08:57:27.061Z,95591.19
2018-04-15T08:59:53.373Z,95591.64
2018-04-15T09:02:19.717Z,95586.99
2018-04-15T09:04:46.045Z,95597.50
2018-04-15T09:07:12.370Z,95591.93
2018-04-15T09:09:38.813Z,95589.71
2018-04-15T09:12:05.108Z,95580.86
2018-04-15T09:14:31.453Z,95580.78
2018-04-15T09:16:57.773Z,95572.48
2018-04-15T09:19:24.093Z,95556.84
2018-04-15T09:21:50.503Z,95563.72
2018-04-15T09:24:16.821Z,95557.67
2018-04-15T09:26:43.250Z,95549.57
2018-04-15T09:29:09.561Z,95537.16
2018-04-15T09:31:35.901Z,95551.18
2018-04-15T09:34:02.288Z,95543.30
2018-04-15T09:36:28.705Z,95540.25
2018-04-15T09:38:55.016Z,95528.45
2018-04-15T09:41:21.374Z,95529.83
2018-04-15T09:43:47.768Z,95533.84
2018-04-15T09:46:14.099Z,95535.55
2018-04-15T09:48:40.449Z,95538.91
2018-04-15T09:51:06.804Z,95538.50
2018-04-15T09:53:33.157Z,95541.13
2018-04-15T09:55:59.535Z,95539.19
2018-04-15T09:58:25.850Z,95537.95
2018-04-15T10:00:52.244Z,95534.44
2018-04-15T10:03:18.561Z,95538.18
2018-04-15T10:05:44.886Z,95537.90
2018-04-15T10:08:11.192Z,95539.38
2018-04-15T10:10:37.558Z,95529.33
2018-04-15T10:13:03.872Z,95537.58
2018-04-15T10:15:30.251Z,95548.18
2018-04-15T10:17:56.564Z,95539.42
2018-04-15T10:20:22.944Z,95518.72
2018-04-15T10:22:49.268Z,95523.42
2018-04-15T10:25:15.660Z,95522.55
2018-04-15T10:27:42.004Z,95520.89
2018-04-15T10:30:08.370Z,95525.77
2018-04-15T10:32:34.692Z,95524.48
2018-04-15T10:35:01.064Z,95533.98
2018-04-15T10:37:27.420Z,95529.83
2018-04-15T10:39:53.740Z,95531.77
2018-04-15T10:42:20.115Z,95530.16
2018-04-15T10:44:46.432Z,95530.75
2018-04-15T10:47:12.762Z,95523.19
2018-04-15T10:49:39.161Z,95515.95
2018-04-15T10:52:05.513Z,95525.09
2018-04-15T10:54:31.828Z,95523.42
2018-04-15T10:56:58.231Z,95518.35
2018-04-15T10:59:24.563Z,95513.78
2018-04-15T11:01:50.881Z,95511.20
2018-04-15T11:04:17.235Z,95514.09
2018-04-15T11:06:43.624Z,95518.72
2018-04-15T11:09:09.933Z,95522.08
2018-04-15T11:11:36.316Z,95513.22
2018-04-15T11:14:02.719Z,95521.67
2018-04-15T11:16:29.075Z,95527.06
2018-04-15T11:18:55.386Z,95531.30
2018-04-15T11:21:21.699Z,95532.13
2018-04-15T11:23:48.056Z,95529.88
2018-04-15T11:26:14.463Z,95522.83
2018-04-15T11:28:40.778Z,95531.17
2018-04-15T11:31:07.144Z,95538.45
2018-04-15T11:33:33.455Z,95544.34
2018-04-15T11:35:59.814Z,95535.41
2018-04-15T11:38:26.136Z,95535.17
2018-04-15T11:40:52.545Z,95538.17
2018-04-15T11:43:18.865Z,95547.13
2018-04-15T11:45:45.226Z,95539.56
2018-04-15T11:48:11.540Z,95536.56
2018-04-15T11:50:37.928Z,95556.02
2018-04-15T11:53:04.257Z,95557.08
2018-04-15T11:55:30.600Z,95553.12
2018-04-15T11:57:56.948Z,95550.35
2018-04-15T12:00:23.375Z,95548.13
2018-04-15T12:02:49.737Z,95538.91
2018-04-15T12:05:16.052Z,95546.38
2018-04-15T12:07:42.412Z,95547.31
2018-04-15T12:10:08.737Z,95544.39
2018-04-15T12:12:35.089Z,95551.18
2018-04-15T12:15:01.412Z,95546.06
2018-04-15T12:17:27.764Z,95556.95
2018-04-15T12:19:54.119Z,95542.01
2018-04-15T12:22:20.440Z,95546.70
2018-04-15T12:24:46.760Z,95552.78
2018-04-15T12:27:13.103Z,95554.00
2018-04-15T12:29:39.421Z,95544.45
2018-04-15T12:32:05.778Z,95541.96
2018-04-15T12:34:32.103Z,95533.56
2018-04-15T12:36:58.419Z,95522.03
2018-04-15T12:39:24.730Z,95536.18
2018-04-15T12:41:51.082Z,95534.76
2018-04-15T12:44:17.400Z,95533.70
2018-04-15T12:46:43.736Z,95531.16
2018-04-15T12:49:10.089Z,95526.55
2018-04-15T12:51:36.404Z,95528.66
2018-04-15T12:54:02.813Z,95527.61
2018-04-15T12:56:29.142Z,95520.33
2018-04-15T12:58:55.498Z,95512.45
2018-04-15T13:01:21.882Z,95513.09
2018-04-15T13:03:48.240Z,95505.53
2018-04-15T13:06:14.558Z,95503.72
2018-04-15T13:08:40.925Z,95495.20
2018-04-15T13:11:07.288Z,95489.80
2018-04-15T13:13:33.606Z,95478.19
2018-04-15T13:15:59.958Z,95481.69
2018-04-15T13:18:26.271Z,95471.55
2018-04-15T13:20:52.600Z,95489.91
2018-04-15T13:23:18.949Z,95503.69
2018-04-15T13:25:45.257Z,95512.81
2018-04-15T13:28:11.665Z,95522.59
2018-04-15T13:30:37.984Z,95528.07
2018-04-15T13:33:04.291Z,95527.48
2018-04-15T13:35:30.615Z,95513.73
2018-04-15T13:37:56.936Z,95517.56
2018-04-15T13:40:23.341Z,95499.04
2018-04-15T13:42:49.640Z,95524.43
2018-04-15T13:45:15.989Z,95514.89
2018-04-15T13:47:42.312Z,95514.43
2018-04-15T13:50:08.662Z,95521.48
2018-04-15T13:52:35.032Z,95504.52
2018-04-15T13:55:01.388Z,95508.80
2018-04-15T13:57:27.745Z,95513.04
2018-04-15T13:59:54.152Z,95505.58
2018-04-15T14:02:20.470Z,95501.52
2018-04-15T14:04:46.880Z,95508.16
2018-04-15T14:07:13.199Z,95506.92
2018-04-15T14:09:39.604Z,95506.04
2018-04-15T14:12:05.924Z,95507.15
2018-04-15T14:14:32.252Z,95515.26
2018-04-15T14:16:58.572Z,95513.60
2018-04-15T14:19:24.888Z,95516.37
2018-04-15T14:21:51.240Z,95515.26
2018-04-15T14:24:17.568Z,95501.62
2018-04-15T14:26:43.928Z,95507.02
2018-04-15T14:29:10.260Z,95503.73
2018-04-15T14:31:36.572Z,95511.62
2018-04-15T14:34:02.924Z,95505.21
2018-04-15T14:36:29.312Z,95501.57
2018-04-15T14:38:55.620Z,95496.63
2018-04-15T14:41:22.022Z,95494.29
2018-04-15T14:43:48.340Z,95494.23
2018-04-15T14:46:14.666Z,95480.66
2018-04-15T14:48:40.985Z,95481.38
2018-04-15T14:51:07.358Z,95482.30
2018-04-15T14:53:33.713Z,95489.87
2018-04-15T14:56:00.028Z,95487.88
2018-04-15T14:58:26.379Z,95492.50
2018-04-15T15:00:52.784Z,95487.56
2018-04-15T15:03:19.129Z,95484.57
2018-04-15T15:05:45.442Z,95480.23
2018-04-15T15:08:11.805Z,95484.52
2018-04-15T15:10:38.168Z,95479.41
2018-04-15T15:13:04.492Z,95471.38
2018-04-15T15:15:30.827Z,95465.63
2018-04-15T15:17:57.180Z,95451.56
2018-04-15T15:20:23.496Z,95454.14
2018-04-15T15:22:49.846Z,95456.55
2018-04-15T15:25:16.175Z,95455.20
2018-04-15T15:27:42.521Z,95460.70
2018-04-15T15:30:08.883Z,95455.07
2018-04-15T15:32:35.240Z,95449.91
2018-04-15T15:35:01.586Z,95448.02
2018-04-15T15:37:27.947Z,95436.08
2018-04-15T15:39:54.296Z,95425.39
2018-04-15T15:42:20.630Z,95424.02
2018-04-15T15:44:46.948Z,95419.13
2018-04-15T15:47:13.323Z,95401.75
2018-04-15T15:49:39.640Z,95391.69
2018-04-15T15:52:05.970Z,95388.03
2018-04-15T15:54:32.305Z,95397.06
2018-04-15T15:56:58.661Z,95405.27
2018-04-15T15:59:25.011Z,95395.19
2018-04-15T16:01:51.312Z,95394.13
2018-04-15T16:04:17.633Z,95389.98
2018-04-15T16:06:43.940Z,95383.58
2018-04-15T16:09:10.337Z,95379.94
2018-04-15T16:11:36.733Z,95382.11
2018-04-15T16:14:03.115Z,95380.88
2018-04-15T16:16:29.535Z,95383.27
2018-04-15T16:18:56.021Z,95385.84
2018-04-15T16:21:22.416Z,95366.22
2018-04-15T16:23:48.835Z,95366.09
2018-04-15T16:26:15.172Z,95364.05
2018-04-15T16:28:41.481Z,95362.58
2018-04-15T16:31:07.818Z,95354.42
2018-04-15T16:33:34.227Z,95363.09
2018-04-15T16:36:00.550Z,95361.47
2018-04-15T16:38:26.949Z,95353.84
2018-04-15T16:40:53.407Z,95347.56
2018-04-15T16:43:19.750Z,95362.27
2018-04-15T16:45:46.152Z,95353.60
2018-04-15T16:48:12.513Z,95357.01
2018-04-15T16:50:38.920Z,95354.94
2018-04-15T16:53:05.300Z,95367.73
2018-04-15T16:55:31.628Z,95371.48
2018-04-15T16:57:58.014Z,95359.19
2018-04-15T17:00:24.380Z,95349.55
2018-04-15T17:02:50.696Z,95354.63
2018-04-15T17:05:17.035Z,95354.58
2018-04-15T17:07:43.414Z,95353.93
2018-04-15T17:10:09.752Z,95361.91
2018-04-15T17:12:36.069Z,95373.87
2018-04-15T17:15:02.544Z,95353.34
2018-04-15T17:17:28.878Z,95357.75
2018-04-15T17:19:55.196Z,95334.69
2018-04-15T17:22:21.587Z,95349.75
2018-04-15T17:24:48.007Z,95366.00
2018-04-15T17:27:14.409Z,95349.97
2018-04-15T17:29:40.732Z,95370.33
2018-04-15T17:32:07.108Z,95371.53
2018-04-15T17:34:33.440Z,95381.56
2018-04-15T17:36:59.790Z,95393.81
2018-04-15T17:39:26.133Z,95392.06
2018-04-15T17:41:52.585Z,95403.16
2018-04-15T17:44:18.969Z,95410.39
2018-04-15T17:46:45.437Z,95417.62
2018-04-15T17:49:11.756Z,95411.77
2018-04-15T17:51:38.100Z,95410.15
2018-04-15T17:54:04.483Z,95416.46
2018-04-15T17:56:30.821Z,95406.51
2018-04-15T17:58:57.159Z,95424.01
2018-04-15T18:01:23.605Z,95419.45
2018-04-15T18:03:49.971Z,95418.62
2018-04-15T18:06:16.388Z,95416.22
2018-04-15T18:08:42.724Z,95426.16
2018-04-15T18:11:09.112Z,95433.23
2018-04-15T18:13:35.475Z,95418.37
2018-04-15T18:16:01.850Z,95439.84
2018-04-15T18:18:28.180Z,95438.23
2018-04-15T18:20:54.583Z,95444.61
2018-04-15T18:23:20.897Z,95454.91
2018-04-15T18:25:47.232Z,95462.91
2018-04-15T18:28:13.603Z,95438.75
2018-04-15T18:30:39.928Z,95439.88
2018-04-15T18:33:06.352Z,95440.52
2018-04-15T18:35:32.701Z,95450.33
2018-04-15T18:37:59.052Z,95442.73
2018-04-15T18:40:25.451Z,95442.31
2018-04-15T18:42:51.806Z,95448.02
2018-04-15T18:45:18.222Z,95428.22
2018-04-15T18:47:44.608Z,95428.36
2018-04-15T18:50:11.004Z,95429.97
2018-04-15T18:52:37.348Z,95417.94
2018-04-15T18:55:03.679Z,95417.11
2018-04-15T18:57:30.012Z,95397.69
2018-04-15T18:59:56.396Z,95420.16
2018-04-15T19:02:22.910Z,95417.41
2018-04-15T19:04:49.244Z,95422.19
2018-04-15T19:07:15.569Z,95420.30
2018-04-15T19:09:41.965Z,95412.37
2018-04-15T19:12:08.309Z,95419.09
2018-04-15T19:14:34.631Z,95414.44
2018-04-15T19:17:00.948Z,95426.78
2018-04-15T19:19:27.355Z,95429.49
2018-04-15T19:21:53.699Z,95432.34
2018-04-15T19:24:20.048Z,95428.86
2018-04-15T19:26:46.361Z,95423.78
2018-04-15T19:29:12.691Z,95426.06
2018-04-15T19:31:39.026Z,95418.63
2018-04-15T19:34:05.396Z,95425.26
2018-04-15T19:36:31.779Z,95431.97
2018-04-15T19:38:58.090Z,95432.50
2018-04-15T19:41:24.460Z,95424.56
2018-04-15T19:43:50.849Z,95435.47
2018-04-15T19:46:17.197Z,95444.69
2018-04-15T19:51:16.100Z,95454.23
2018-04-15T19:53:42.467Z,95448.31
2018-04-15T19:56:08.797Z,95450.37
2018-04-15T19:58:35.154Z,95446.41
2018-04-15T20:01:01.500Z,95444.94
2018-04-15T20:03:27.896Z,95440.36
2018-04-15T20:05:54.226Z,95449.91
2018-04-15T20:08:20.643Z,95445.94
2018-04-15T20:10:46.948Z,95450.59
2018-04-15T20:13:13.410Z,95456.27
2018-04-15T20:15:39.751Z,95456.27
2018-04-15T20:18:06.066Z,95453.53
2018-04-15T20:20:32.392Z,95457.45
2018-04-15T20:22:58.732Z,95457.36
2018-04-15T20:25:25.085Z,95459.89
2018-04-15T20:27:51.428Z,95460.46
2018-04-15T20:30:17.744Z,95461.48
2018-04-15T20:32:44.174Z,95460.56
2018-04-15T20:35:10.532Z,95451.37
2018-04-15T20:37:36.849Z,95446.27
2018-04-15T20:40:03.185Z,95463.60
2018-04-15T20:42:29.600Z,95468.02
2018-04-15T20:44:56.004Z,95461.75
2018-04-15T20:47:22.337Z,95452.32
2018-04-15T20:49:48.716Z,95443.55
2018-04-15T20:52:15.058Z,95461.51
2018-04-15T20:54:41.548Z,95459.44
2018-04-15T20:57:07.876Z,95469.66
2018-04-15T20:59:34.216Z,95475.95
2018-04-15T21:02:00.541Z,95470.91
2018-04-15T21:04:26.957Z,95482.84
2018-04-15T21:06:53.315Z,95468.88
2018-04-15T21:09:19.645Z,95478.86
2018-04-15T21:11:45.963Z,95484.17
2018-04-15T21:14:12.286Z,95492.59
2018-04-15T21:16:38.621Z,95482.31
2018-04-15T21:19:04.945Z,95489.16
2018-04-15T21:21:31.312Z,95486.30
2018-04-15T21:23:57.622Z,95486.00
2018-04-15T21:26:23.961Z,95491.62
2018-04-15T21:28:50.348Z,95487.30
2018-04-15T21:31:16.666Z,95477.00
2018-04-15T21:33:43.036Z,95484.77
2018-04-15T21:36:09.355Z,95485.85
2018-04-15T21:38:35.761Z,95481.58
2018-04-15T21:41:02.129Z,95471.09
2018-04-15T21:43:28.491Z,95488.02
2018-04-15T21:45:54.871Z,95492.92
2018-04-15T21:48:21.232Z,95490.13
2018-04-15T21:50:47.589Z,95490.15
2018-04-15T21:53:13.973Z,95497.00
2018-04-15T21:55:40.295Z,95496.30
2018-04-15T21:58:06.621Z,95504.10
2018-04-15T22:00:33.007Z,95495.67
2018-04-15T22:02:59.324Z,95495.50
2018-04-15T22:05:25.680Z,95483.95
2018-04-15T22:07:52.008Z,95475.89
2018-04-15T22:10:18.396Z,95479.45
2018-04-15T22:12:44.788Z,95480.27
2018-04-15T22:15:11.152Z,95475.12
2018-04-15T22:17:37.472Z,95493.97
2018-04-15T22:20:03.814Z,95485.45
2018-04-15T22:22:30.164Z,95481.17
2018-04-15T22:24:56.493Z,95483.27
2018-04-15T22:27:22.820Z,95459.89
2018-04-15T22:29:49.147Z,95467.70
2018-04-15T22:32:15.516Z,95476.77
2018-04-15T22:34:41.899Z,95454.28
2018-04-15T22:37:08.237Z,95455.84
2018-04-15T22:39:34.568Z,95449.45
2018-04-15T22:42:00.951Z,95443.51
2018-04-15T22:44:27.303Z,95435.16
2018-04-15T22:46:53.623Z,95440.16
2018-04-15T22:49:19.988Z,95428.59
2018-04-15T22:51:46.377Z,95425.36
2018-04-15T22:54:12.753Z,95415.52
2018-04-15T22:56:39.099Z,95415.27
2018-04-15T22:59:05.458Z,95406.86
2018-04-15T23:01:31.781Z,95417.55
2018-04-15T23:03:58.122Z,95406.02
2018-04-15T23:06:24.477Z,95392.89
2018-04-15T23:08:50.811Z,95400.27
2018-04-15T23:11:17.184Z,95396.83
2018-04-15T23:13:43.521Z,95398.50
2018-04-15T23:16:09.855Z,95402.20
2018-04-15T23:18:36.187Z,95390.61
2018-04-15T23:21:02.504Z,95388.73
2018-04-15T23:23:28.952Z,95389.53
2018-04-15T23:25:55.263Z,95376.61
2018-04-15T23:28:21.594Z,95379.89
2018-04-15T23:30:47.991Z,95380.40
2018-04-15T23:33:14.333Z,95376.66
2018-04-15T23:35:40.815Z,95367.04
2018-04-15T23:38:07.151Z,95367.33
2018-04-15T23:40:33.504Z,95357.56
2018-04-15T23:42:59.820Z,95359.53
2018-04-15T23:45:26.202Z,95357.93
2018-04-15T23:47:52.528Z,95363.08
2018-04-15T23:50:18.844Z,95366.12
2018-04-15T23:52:45.211Z,95359.12
2018-04-15T23:55:11.534Z,95353.46
2018-04-15T23:57:37.922Z,95352.66
